< < Back
Terminal Aerodrome Forecast


Current Version              Previous Versions:   1  2  3  4  5  6  7  8  9  

Terminal Aerodrome Forecast

251
FTUS42 KCHS 021134
TAFCHS
TAF
KCHS 021134Z 0212/0312 VRB04KT P6SM SCT035 BKN250
     FM021800 19007KT P6SM SCT040 BKN200
     FM030000 22004KT P6SM FEW040=



Latest METAR

452
SAUS80 KWBC 022300 CCA
MTRCHS
METAR KCHS 022256Z 20007KT 10SM FEW030 FEW045 BKN180 28/24 A2998 RMK AO2
SLP151 T02830244


USA.gov is the U.S. government's official web portal to all federal, state and local government web resources and services.